Terminal Aerodrome Forecast
Issued by NWS

Home | Current Version | Previous Version | Text Only | Print | Product List | Glossary On
Versions: 1 2 3 4 5 6 7 8 9 10 11 12 13 14 15 16 17 18 19
396
FTUS41 KBGM 200953 AAA
TAFITH
TAF AMD
KITH 200953Z 2010/2106 20008KT P6SM BKN250 WS020/25045KT
     FM201500 26010KT P6SM BKN150
     FM202300 28009KT P6SM BKN035
     FM210300 29008KT P6SM OVC025=

USA.gov is the U.S. government's official web portal to all federal, state and local government web resources and services.